createdAt,value
2018-07-30T00:00:57.411Z,10.40
2018-07-30T00:03:33.091Z,13.13
2018-07-30T00:06:04.439Z,10.23
2018-07-30T00:08:36.214Z,11.43
2018-07-30T00:11:05.887Z,12.53
2018-07-30T00:13:37.563Z,11.00
2018-07-30T00:16:10.687Z,10.90
2018-07-30T00:18:40.679Z,12.17
2018-07-30T00:21:10.706Z,11.73
2018-07-30T00:23:42.651Z,10.90
2018-07-30T00:26:14.314Z,11.53
2018-07-30T00:28:47.306Z,15.57
2018-07-30T00:31:17.935Z,10.87
2018-07-30T00:33:48.483Z,11.03
2018-07-30T00:36:18.455Z,10.33
2018-07-30T00:38:49.445Z,12.63
2018-07-30T00:41:21.118Z,10.83
2018-07-30T00:43:51.302Z,12.37
2018-07-30T00:46:21.184Z,11.37
2018-07-30T00:48:54.107Z,11.47
2018-07-30T00:51:23.962Z,10.93
2018-07-30T00:53:53.787Z,13.30
2018-07-30T00:56:25.734Z,12.50
2018-07-30T00:58:57.834Z,13.10
2018-07-30T01:01:28.190Z,10.43
2018-07-30T01:03:57.942Z,12.87
2018-07-30T01:06:30.087Z,10.97
2018-07-30T01:09:00.694Z,11.50
2018-07-30T01:11:30.594Z,13.90
2018-07-30T01:14:00.830Z,13.03
2018-07-30T01:16:30.450Z,12.27
2018-07-30T01:19:02.603Z,10.67
2018-07-30T01:21:35.222Z,14.93
2018-07-30T01:24:07.455Z,13.83
2018-07-30T01:26:41.555Z,12.93
2018-07-30T01:29:14.107Z,13.67
2018-07-30T01:31:45.081Z,10.87
2018-07-30T01:34:17.038Z,12.30
2018-07-30T01:37:04.119Z,10.23
2018-07-30T01:39:35.299Z,13.60
2018-07-30T01:42:06.411Z,12.73
2018-07-30T01:44:36.258Z,11.83
2018-07-30T01:47:07.094Z,12.97
2018-07-30T01:49:39.226Z,12.33
2018-07-30T01:52:09.250Z,11.10
2018-07-30T01:54:44.798Z,16.50
2018-07-30T01:57:19.254Z,16.17
2018-07-30T01:59:50.966Z,15.00
2018-07-30T02:02:22.926Z,12.40
2018-07-30T02:04:54.662Z,12.13
2018-07-30T02:07:24.310Z,13.20
2018-07-30T02:09:55.167Z,13.27
2018-07-30T02:12:30.899Z,11.90
2018-07-30T02:15:04.898Z,13.90
2018-07-30T02:17:38.547Z,13.87
2018-07-30T02:20:09.298Z,11.87
2018-07-30T02:22:44.582Z,14.97
2018-07-30T02:25:19.595Z,11.20
2018-07-30T02:27:53.311Z,13.03
2018-07-30T02:30:29.643Z,14.30
2018-07-30T02:33:04.071Z,15.27
2018-07-30T02:35:35.167Z,12.43
2018-07-30T02:38:10.235Z,15.50
2018-07-30T02:40:46.555Z,13.57
2018-07-30T02:43:28.470Z,18.53
2018-07-30T02:45:58.356Z,16.70
2018-07-30T02:48:30.276Z,13.40
2018-07-30T02:51:00.395Z,13.23
2018-07-30T02:53:34.791Z,15.10
2018-07-30T02:56:05.479Z,13.03
2018-07-30T02:58:36.599Z,17.33
2018-07-30T03:01:07.239Z,12.93
2018-07-30T03:03:38.191Z,14.30
2018-07-30T03:06:21.111Z,14.30
2018-07-30T03:08:55.014Z,12.90
2018-07-30T03:11:26.051Z,14.67
2018-07-30T03:13:55.803Z,15.67
2018-07-30T03:16:26.723Z,13.50
2018-07-30T03:18:56.591Z,15.73
2018-07-30T03:21:27.463Z,13.63
2018-07-30T03:23:59.188Z,15.63
2018-07-30T03:26:31.061Z,12.73
2018-07-30T03:29:02.256Z,19.20
2018-07-30T03:31:31.995Z,15.57
2018-07-30T03:34:02.879Z,14.50
2018-07-30T03:36:32.727Z,14.60
2018-07-30T03:39:02.622Z,13.10
2018-07-30T03:41:33.687Z,13.57
2018-07-30T03:44:05.643Z,13.80
2018-07-30T03:46:35.667Z,17.03
2018-07-30T03:49:07.485Z,14.13
2018-07-30T03:51:37.472Z,16.13
2018-07-30T03:54:07.913Z,11.83
2018-07-30T03:56:39.923Z,14.10
2018-07-30T03:59:09.927Z,14.90
2018-07-30T04:01:39.891Z,15.13
2018-07-30T04:04:09.679Z,13.90
2018-07-30T04:06:39.543Z,23.03
2018-07-30T04:09:09.531Z,13.67
2018-07-30T04:11:41.511Z,14.07
2018-07-30T04:14:11.387Z,14.00
2018-07-30T04:16:46.211Z,12.73
2018-07-30T04:19:21.243Z,13.80
2018-07-30T04:21:53.155Z,12.17
2018-07-30T04:24:25.033Z,13.33
2018-07-30T04:26:54.903Z,14.07
2018-07-30T04:29:25.732Z,13.43
2018-07-30T04:32:04.946Z,13.27
2018-07-30T04:34:34.795Z,13.30
2018-07-30T04:37:04.486Z,15.07
2018-07-30T04:39:34.091Z,12.33
2018-07-30T04:42:04.882Z,12.90
2018-07-30T04:44:36.723Z,12.83
2018-07-30T04:47:09.971Z,13.23
2018-07-30T04:49:43.118Z,12.53
2018-07-30T04:52:12.976Z,12.20
2018-07-30T04:54:44.862Z,11.03
2018-07-30T04:57:21.515Z,16.40
2018-07-30T04:59:51.332Z,10.73
2018-07-30T05:02:22.343Z,15.30
2018-07-30T05:04:53.268Z,12.90
2018-07-30T05:07:22.908Z,11.23
2018-07-30T05:09:52.791Z,12.40
2018-07-30T05:12:26.211Z,13.50
2018-07-30T05:14:57.063Z,11.27
2018-07-30T05:17:28.931Z,15.27
2018-07-30T05:19:59.799Z,15.07
2018-07-30T05:22:29.787Z,13.00
2018-07-30T05:25:01.608Z,12.00
2018-07-30T05:27:31.459Z,12.83
2018-07-30T05:30:01.363Z,15.03
2018-07-30T05:32:33.303Z,10.57
2018-07-30T05:35:06.871Z,10.90
2018-07-30T05:37:37.551Z,11.40
2018-07-30T05:40:08.283Z,11.73
2018-07-30T05:42:39.166Z,11.47
2018-07-30T05:45:22.039Z,12.87
2018-07-30T05:48:00.571Z,15.63
2018-07-30T05:50:31.187Z,9.37
2018-07-30T05:53:01.690Z,8.63
2018-07-30T05:55:42.271Z,9.90
2018-07-30T05:58:22.127Z,9.70
2018-07-30T06:00:52.028Z,8.37
2018-07-30T06:03:27.027Z,11.83
2018-07-30T06:05:57.903Z,10.00
2018-07-30T06:08:27.727Z,8.03
2018-07-30T06:10:59.308Z,8.60
2018-07-30T06:13:32.951Z,8.50
2018-07-30T06:16:02.491Z,9.90
2018-07-30T06:18:33.279Z,8.70
2018-07-30T06:21:03.000Z,9.30
2018-07-30T06:23:33.555Z,8.20
2018-07-30T06:26:04.823Z,12.27
2018-07-30T06:28:34.611Z,6.57
2018-07-30T06:31:04.571Z,7.20
2018-07-30T06:33:46.743Z,6.80
2018-07-30T06:36:16.575Z,7.50
2018-07-30T06:38:51.396Z,6.70
2018-07-30T06:41:25.283Z,5.80
2018-07-30T06:43:54.847Z,5.97
2018-07-30T06:46:24.595Z,10.13
2018-07-30T06:48:54.170Z,6.67
2018-07-30T06:51:24.952Z,5.63
2018-07-30T06:53:54.518Z,4.80
2018-07-30T06:56:32.043Z,5.20
2018-07-30T06:59:01.864Z,5.60
2018-07-30T07:01:31.747Z,5.70
2018-07-30T07:04:02.595Z,5.43
2018-07-30T07:06:32.491Z,5.33
2018-07-30T07:09:02.287Z,4.77
2018-07-30T07:11:32.083Z,8.63
2018-07-30T07:14:01.904Z,4.47
2018-07-30T07:16:33.842Z,4.80
2018-07-30T07:19:04.719Z,11.57
2018-07-30T07:21:34.535Z,4.30
2018-07-30T07:24:09.147Z,4.53
2018-07-30T07:26:38.599Z,6.43
2018-07-30T07:29:08.367Z,3.97
2018-07-30T07:31:39.987Z,4.40
2018-07-30T07:34:12.523Z,4.00
2018-07-30T07:36:43.964Z,5.23
2018-07-30T07:39:14.647Z,4.70
2018-07-30T07:41:44.403Z,3.90
2018-07-30T07:44:19.063Z,3.87
2018-07-30T07:46:53.646Z,4.60
2018-07-30T07:49:26.649Z,4.67
2018-07-30T07:51:58.574Z,4.13
2018-07-30T07:54:31.671Z,6.00
2018-07-30T07:57:01.419Z,4.10
2018-07-30T07:59:34.802Z,4.30
2018-07-30T08:02:04.602Z,4.67
2018-07-30T08:04:38.703Z,4.90
2018-07-30T08:07:08.407Z,3.63
2018-07-30T08:09:52.446Z,4.47
2018-07-30T08:12:22.143Z,4.10
2018-07-30T08:14:54.043Z,3.57
2018-07-30T08:17:26.703Z,3.50
2018-07-30T08:19:59.663Z,3.80
2018-07-30T08:22:29.458Z,3.80
2018-07-30T08:25:02.802Z,4.23
2018-07-30T08:27:44.458Z,4.83
2018-07-30T08:30:19.330Z,4.63
2018-07-30T08:32:49.078Z,5.27
2018-07-30T08:35:20.558Z,4.47
2018-07-30T08:37:50.382Z,8.67
2018-07-30T08:40:20.174Z,4.17
2018-07-30T08:42:53.278Z,3.93
2018-07-30T08:45:23.908Z,4.33
2018-07-30T08:47:53.373Z,4.27
2018-07-30T08:50:32.687Z,5.70
2018-07-30T08:53:03.470Z,3.80
2018-07-30T08:55:34.326Z,4.33
2018-07-30T08:58:05.198Z,4.80
2018-07-30T09:00:39.542Z,4.40
2018-07-30T09:03:09.374Z,3.60
2018-07-30T09:05:39.210Z,4.03
2018-07-30T09:08:08.986Z,4.00
2018-07-30T09:10:44.219Z,4.13
2018-07-30T09:13:19.070Z,4.03
2018-07-30T09:15:49.862Z,5.00
2018-07-30T09:18:21.717Z,4.00
2018-07-30T09:20:52.802Z,4.17
2018-07-30T09:26:30.634Z,4.13
2018-07-30T09:29:01.447Z,3.90
2018-07-30T09:31:31.338Z,4.30
2018-07-30T09:34:07.369Z,5.27
2018-07-30T09:36:55.665Z,5.77
2018-07-30T09:39:33.069Z,5.80
2018-07-30T09:42:02.898Z,5.53
2018-07-30T09:44:33.715Z,3.87
2018-07-30T09:47:03.514Z,3.50
2018-07-30T09:49:36.690Z,3.80
2018-07-30T22:07:37.632Z,9.70
2018-07-30T22:10:07.420Z,12.63
2018-07-30T22:12:39.637Z,12.40
2018-07-30T22:15:10.993Z,11.37
2018-07-30T22:17:41.060Z,13.20
2018-07-30T22:20:21.774Z,12.67
2018-07-30T22:22:52.384Z,11.30
2018-07-30T22:25:23.296Z,11.40
2018-07-30T22:27:53.333Z,11.17
2018-07-30T22:30:25.289Z,14.13
2018-07-30T22:32:55.064Z,13.73
2018-07-30T22:35:31.448Z,12.40
2018-07-30T22:38:07.180Z,14.83
2018-07-30T22:40:47.096Z,12.23
2018-07-30T22:43:16.772Z,13.20
2018-07-30T22:45:50.396Z,12.13
2018-07-30T22:48:21.436Z,13.80
2018-07-30T22:50:51.160Z,11.87
2018-07-30T22:53:22.875Z,11.47
2018-07-30T22:55:53.479Z,9.60
2018-07-30T22:58:24.053Z,15.43
2018-07-30T23:00:53.980Z,13.53
2018-07-30T23:03:24.258Z,10.30
2018-07-30T23:05:55.220Z,11.20
2018-07-30T23:08:24.815Z,11.80
2018-07-30T23:10:55.427Z,11.73
2018-07-30T23:13:27.275Z,12.83
2018-07-30T23:15:58.091Z,11.73
2018-07-30T23:18:27.731Z,12.77
2018-07-30T23:20:57.380Z,10.30
2018-07-30T23:23:28.895Z,12.30
2018-07-30T23:26:03.575Z,11.80
2018-07-30T23:28:37.043Z,12.60
2018-07-30T23:31:08.747Z,14.23
2018-07-30T23:33:45.789Z,11.27
2018-07-30T23:36:17.371Z,14.90
2018-07-30T23:38:47.219Z,11.53
2018-07-30T23:41:18.176Z,13.13
2018-07-30T23:43:48.591Z,21.03
2018-07-30T23:46:47.323Z,10.60
